Time;durP1;ratioP1;P1;durP2;ratioP2;P2;SDS_P1;SDS_P2;PMS_P1;PMS_P2;Temp;Humidity;BMP_temperature;BMP_pressure;BME280_temperature;BME280_humidity;BME280_pressure;Samples;Min_cycle;Max_cycle;Signal;HPM_P1;HPM_P2
2023/05/23 00:02:18;;;;;;;4.15;1.27;;;;;;;20.84;91.94;100530.81;4927848;29;20101;-66
2023/05/23 00:04:44;;;;;;;2.20;1.33;;;;;;;20.80;92.27;100532.88;4931138;29;20046;-67
2023/05/23 00:07:31;;;;;;;2.45;1.45;;;;;;;20.87;91.93;100537.38;4947183;29;20074;-67
2023/05/23 00:09:56;;;;;;;2.05;1.33;;;;;;;20.81;91.87;100531.66;4892498;29;20049;-66
2023/05/23 00:12:22;;;;;;;2.45;1.63;;;;;;;20.79;92.31;100525.84;4873455;29;20049;-67
2023/05/23 00:14:48;;;;;;;2.30;1.30;;;;;;;20.82;92.01;100535.94;4890830;29;20083;-65
2023/05/23 00:17:16;;;;;;;2.25;1.40;;;;;;;20.80;92.61;100532.09;4890890;29;20120;-66
2023/05/23 00:19:44;;;;;;;2.95;1.73;;;;;;;20.80;92.89;100526.63;4892798;29;20060;-66
2023/05/23 00:22:11;;;;;;;2.65;1.40;;;;;;;20.83;92.81;100520.28;4874940;29;20076;-66
2023/05/23 00:24:36;;;;;;;1.83;0.80;;;;;;;20.84;92.70;100519.88;4892423;29;20088;-67
2023/05/23 00:27:02;;;;;;;2.03;1.15;;;;;;;20.79;92.52;100528.56;4891364;29;20091;-66
2023/05/23 00:29:28;;;;;;;1.70;1.27;;;;;;;20.82;92.71;100527.75;4896914;29;20460;-69
2023/05/23 00:31:53;;;;;;;1.40;0.95;;;;;;;20.76;92.46;100521.22;4893936;29;20040;-69
2023/05/23 00:34:19;;;;;;;2.78;1.40;;;;;;;20.74;92.52;100528.31;4911270;29;20047;-69
2023/05/23 00:36:49;;;;;;;2.03;1.52;;;;;;;20.68;92.28;100523.38;4906715;29;20041;-69
2023/05/23 00:39:18;;;;;;;2.38;1.67;;;;;;;20.68;92.34;100523.38;4874148;29;20039;-68
2023/05/23 00:41:51;;;;;;;1.95;1.23;;;;;;;20.68;92.33;100517.09;4891886;29;20043;-69
2023/05/23 00:44:18;;;;;;;1.75;1.15;;;;;;;20.65;92.33;100526.19;4888300;29;20042;-69
2023/05/23 00:46:48;;;;;;;1.48;1.02;;;;;;;20.56;92.75;100524.03;4936321;28;20031;-69
2023/05/23 00:49:13;;;;;;;1.85;1.40;;;;;;;20.57;92.59;100530.28;4986104;28;20038;-68
2023/05/23 00:51:41;;;;;;;2.53;1.55;;;;;;;20.59;92.36;100527.88;4969456;28;20542;-68
2023/05/23 00:54:08;;;;;;;1.33;1.05;;;;;;;20.59;92.61;100523.19;4984316;28;20030;-69
2023/05/23 00:56:34;;;;;;;5.90;1.95;;;;;;;20.55;92.81;100516.25;4971844;28;20495;-69
2023/05/23 00:58:59;;;;;;;1.85;1.27;;;;;;;20.53;92.41;100518.63;4985312;28;20037;-69
2023/05/23 01:01:26;;;;;;;1.83;1.40;;;;;;;20.48;92.84;100527.34;4965324;28;20030;-69
2023/05/23 01:03:51;;;;;;;2.60;1.20;;;;;;;20.47;91.93;100515.63;4970020;28;20117;-69
2023/05/23 01:06:17;;;;;;;2.47;1.58;;;;;;;20.34;92.33;100511.25;4968857;28;20156;-69
2023/05/23 01:08:43;;;;;;;3.75;1.67;;;;;;;20.33;92.09;100515.16;4959967;28;20031;-69
2023/05/23 01:11:21;;;;;;;1.92;1.45;;;;;;;20.29;92.04;100528.16;4982278;28;20131;-69
2023/05/23 01:13:58;;;;;;;2.63;1.45;;;;;;;20.22;92.35;100522.84;4963812;28;20070;-69
2023/05/23 01:16:36;;;;;;;1.45;1.35;;;;;;;20.14;92.29;100518.69;4963956;28;20073;-69
2023/05/23 01:19:19;;;;;;;2.10;1.67;;;;;;;20.20;91.79;100512.31;4986586;28;20049;-68
2023/05/23 01:21:51;;;;;;;2.83;1.30;;;;;;;20.12;92.22;100521.06;4984315;28;20541;-68
2023/05/23 01:24:36;;;;;;;1.55;1.17;;;;;;;20.15;92.40;100509.28;4968591;28;20037;-69
2023/05/23 01:27:08;;;;;;;1.80;1.50;;;;;;;20.12;92.47;100499.97;4979449;28;20121;-69
2023/05/23 01:29:42;;;;;;;2.15;1.60;;;;;;;20.01;92.64;100493.94;4969434;28;20096;-69
2023/05/23 01:32:11;;;;;;;2.00;1.65;;;;;;;19.99;93.49;100495.56;4951349;28;20031;-69
2023/05/23 01:34:38;;;;;;;2.78;1.33;;;;;;;19.90;94.13;100489.91;4988936;28;20026;-68
2023/05/23 01:37:10;;;;;;;2.35;1.75;;;;;;;19.77;95.17;100489.75;4966898;28;20093;-68
2023/05/23 01:39:37;;;;;;;2.28;1.63;;;;;;;19.86;95.01;100494.66;4969249;28;20022;-69
2023/05/23 01:42:03;;;;;;;2.00;1.60;;;;;;;19.80;95.10;100480.72;4969905;28;20027;-70
2023/05/23 01:44:29;;;;;;;3.97;1.77;;;;;;;19.88;95.19;100487.56;4958319;28;20099;-69
2023/05/23 01:46:55;;;;;;;2.90;1.75;;;;;;;19.91;94.72;100489.47;4962479;28;20045;-69
2023/05/23 01:49:23;;;;;;;2.83;2.05;;;;;;;19.92;95.23;100495.72;4970009;28;20057;-68
2023/05/23 01:51:49;;;;;;;3.05;2.13;;;;;;;19.91;95.54;100481.25;4968779;28;20391;-69
2023/05/23 01:54:15;;;;;;;2.92;2.03;;;;;;;19.97;95.73;100497.94;4982691;28;20034;-69
2023/05/23 01:56:41;;;;;;;2.50;1.60;;;;;;;20.01;95.80;100498.66;4970713;28;20030;-69
2023/05/23 01:59:08;;;;;;;3.25;2.03;;;;;;;19.90;96.09;100484.44;4971941;28;20026;-69
2023/05/23 02:01:34;;;;;;;2.00;1.38;;;;;;;19.95;96.35;100489.38;4963050;28;20049;-68
2023/05/23 02:03:59;;;;;;;1.70;1.55;;;;;;;19.89;96.56;100486.38;4966268;28;20039;-69
2023/05/23 02:06:25;;;;;;;2.25;1.70;;;;;;;20.01;96.28;100493.19;4968864;28;20026;-69
2023/05/23 02:08:50;;;;;;;2.80;1.90;;;;;;;20.18;95.68;100487.34;4985309;28;20100;-69
2023/05/23 02:11:16;;;;;;;2.70;1.90;;;;;;;20.10;94.72;100482.44;4967499;28;20380;-69
2023/05/23 02:13:44;;;;;;;2.63;1.67;;;;;;;20.12;95.54;100489.03;4988246;28;20029;-69
2023/05/23 02:16:10;;;;;;;2.72;1.70;;;;;;;20.22;95.12;100495.47;4968241;28;20459;-69
2023/05/23 02:18:37;;;;;;;3.35;1.65;;;;;;;20.27;94.94;100489.50;4967258;28;20034;-67
2023/05/23 02:21:04;;;;;;;3.25;1.92;;;;;;;20.23;94.56;100497.78;4966342;28;20109;-69
2023/05/23 02:23:29;;;;;;;3.00;1.75;;;;;;;20.21;94.72;100497.44;4970645;28;20078;-68
2023/05/23 02:25:55;;;;;;;2.40;1.83;;;;;;;20.18;95.09;100497.50;4971046;28;20582;-69
2023/05/23 02:28:20;;;;;;;2.53;1.80;;;;;;;20.29;94.31;100498.84;4969856;28;20407;-68
2023/05/23 02:30:48;;;;;;;2.72;2.10;;;;;;;20.26;94.99;100494.22;4968470;28;20674;-67
2023/05/23 02:33:13;;;;;;;3.08;1.73;;;;;;;20.34;94.15;100505.78;4969689;28;20032;-68
2023/05/23 02:35:38;;;;;;;3.40;2.10;;;;;;;20.44;93.36;100499.31;4964800;28;20062;-66
2023/05/23 02:38:04;;;;;;;4.68;3.10;;;;;;;20.34;92.64;100495.59;4982768;28;20030;-68
2023/05/23 02:40:30;;;;;;;6.22;3.55;;;;;;;20.30;92.65;100499.63;4991418;28;20073;-67
2023/05/23 02:42:56;;;;;;;6.63;4.28;;;;;;;20.41;91.28;100489.97;4979572;28;20023;-67
2023/05/23 02:45:22;;;;;;;6.28;3.75;;;;;;;20.28;91.47;100485.59;4969230;28;20054;-68
2023/05/23 02:47:48;;;;;;;8.45;4.20;;;;;;;20.24;91.80;100491.13;4969149;28;20066;-67
2023/05/23 02:50:13;;;;;;;9.30;4.63;;;;;;;20.15;91.76;100499.09;4965323;28;20045;-67
2023/05/23 02:52:41;;;;;;;12.05;4.70;;;;;;;20.20;91.23;100493.19;4964125;28;20656;-66
2023/05/23 02:55:07;;;;;;;9.02;4.43;;;;;;;19.98;91.67;100494.00;4969847;28;20679;-68
2023/05/23 02:57:39;;;;;;;7.85;4.70;;;;;;;20.05;91.49;100499.34;4965041;28;20109;-66
2023/05/23 03:00:05;;;;;;;8.65;4.28;;;;;;;19.99;92.05;100495.56;4975415;28;20117;-66
2023/05/23 03:02:31;;;;;;;10.05;4.45;;;;;;;20.05;91.49;100499.34;4971076;28;20038;-68
2023/05/23 03:04:57;;;;;;;12.73;5.65;;;;;;;20.16;90.82;100502.63;4992833;28;20122;-67
2023/05/23 03:07:22;;;;;;;12.63;6.10;;;;;;;20.15;89.95;100512.78;4983017;28;20022;-67
2023/05/23 03:09:48;;;;;;;10.45;5.15;;;;;;;20.09;89.98;100511.72;4975517;28;20129;-68
2023/05/23 03:12:13;;;;;;;12.70;6.00;;;;;;;19.89;91.13;100513.72;4976003;28;20023;-67
2023/05/23 03:14:39;;;;;;;10.50;5.32;;;;;;;19.97;90.52;100514.34;4974576;28;20085;-67
2023/05/23 03:17:04;;;;;;;13.65;6.53;;;;;;;19.86;90.99;100519.25;4967107;28;20031;-67
2023/05/23 03:19:30;;;;;;;11.00;4.88;;;;;;;19.73;92.25;100514.41;4975049;28;20352;-66
2023/05/23 03:21:55;;;;;;;15.48;4.85;;;;;;;19.70;92.29;100511.75;4975255;28;20042;-66
2023/05/23 03:24:21;;;;;;;12.82;5.53;;;;;;;19.77;92.21;100517.84;4964533;28;20026;-66
2023/05/23 03:26:46;;;;;;;15.27;6.28;;;;;;;19.82;91.92;100516.59;4974693;28;20372;-67
2023/05/23 03:29:11;;;;;;;10.48;5.03;;;;;;;19.86;90.89;100520.00;4975673;28;20038;-66
2023/05/23 03:31:37;;;;;;;11.73;5.18;;;;;;;19.83;90.92;100514.63;4986948;28;20097;-67
2023/05/23 03:34:04;;;;;;;15.00;6.32;;;;;;;19.73;90.91;100519.88;4975533;28;20037;-68
2023/05/23 03:36:50;;;;;;;12.15;5.68;;;;;;;19.76;90.88;100527.22;4992757;28;20022;-67
2023/05/23 03:39:15;;;;;;;12.50;5.85;;;;;;;19.72;91.18;100514.84;4920713;29;20047;-67
2023/05/23 03:41:41;;;;;;;10.13;5.40;;;;;;;19.70;91.06;100512.50;4928891;29;20059;-68
2023/05/23 03:44:06;;;;;;;13.75;5.22;;;;;;;19.68;91.07;100514.13;4925928;29;20027;-66
2023/05/23 03:46:33;;;;;;;12.68;4.53;;;;;;;19.60;91.56;100510.78;4902959;29;20060;-66
2023/05/23 03:48:58;;;;;;;10.82;4.78;;;;;;;19.53;92.07;100513.63;4911369;29;20040;-67
2023/05/23 03:51:24;;;;;;;14.00;5.47;;;;;;;19.49;91.84;100512.91;4910696;29;20046;-66
2023/05/23 03:53:49;;;;;;;9.45;4.63;;;;;;;19.50;91.66;100510.97;4933047;29;20484;-66
2023/05/23 03:56:16;;;;;;;10.98;5.63;;;;;;;19.58;91.33;100513.16;4908852;29;20038;-67
2023/05/23 03:58:41;;;;;;;12.35;5.13;;;;;;;19.63;90.93;100514.59;4932831;29;20485;-68
2023/05/23 04:01:12;;;;;;;12.32;6.28;;;;;;;19.49;91.32;100518.38;4913363;29;20036;-67
2023/05/23 04:03:38;;;;;;;10.65;5.40;;;;;;;19.44;91.54;100516.13;4925285;29;20563;-67
2023/05/23 04:06:04;;;;;;;11.73;5.63;;;;;;;19.61;90.68;100515.03;4907166;29;20031;-68
2023/05/23 04:08:32;;;;;;;13.15;5.60;;;;;;;19.51;90.93;100507.81;4932578;29;20043;-66
2023/05/23 04:11:00;;;;;;;8.18;4.80;;;;;;;19.48;91.20;100516.84;4910828;29;20069;-69
2023/05/23 04:13:27;;;;;;;7.25;3.95;;;;;;;19.47;91.30;100515.28;4922629;29;20095;-67
2023/05/23 04:15:56;;;;;;;11.45;5.70;;;;;;;19.51;90.79;100516.00;4933640;28;20121;-66
2023/05/23 04:18:22;;;;;;;7.38;4.28;;;;;;;19.49;90.83;100510.19;5003431;23;20140;-66
2023/05/23 04:20:48;;;;;;;11.00;5.10;;;;;;;19.46;90.66;100511.03;5021623;28;20548;-67
2023/05/23 04:23:13;;;;;;;9.65;5.03;;;;;;;19.42;90.88;100504.84;5019269;28;20029;-68
2023/05/23 04:25:41;;;;;;;9.98;5.03;;;;;;;19.42;91.25;100510.31;5010107;28;20039;-68
2023/05/23 04:28:18;;;;;;;11.10;5.03;;;;;;;19.40;91.08;100507.25;5010232;28;20552;-68
2023/05/23 04:30:44;;;;;;;8.65;4.32;;;;;;;19.51;89.72;100510.53;4996810;28;20069;-68
2023/05/23 04:33:10;;;;;;;11.23;5.03;;;;;;;19.39;90.57;100513.13;4983724;28;20510;-68
2023/05/23 04:35:39;;;;;;;11.70;4.70;;;;;;;19.45;90.32;100512.22;4989729;28;20044;-68
2023/05/23 04:38:05;;;;;;;11.32;5.30;;;;;;;19.46;90.00;100521.97;5003207;28;20025;-66
2023/05/23 04:40:31;;;;;;;9.88;3.95;;;;;;;19.29;90.37;100514.06;4988538;28;20068;-67
2023/05/23 04:43:20;;;;;;;12.45;4.78;;;;;;;19.29;89.68;100520.28;4995262;28;20035;-67
2023/05/23 04:45:48;;;;;;;10.32;4.70;;;;;;;19.43;89.03;100520.06;4969319;28;20120;-66
2023/05/23 04:48:36;;;;;;;9.63;5.15;;;;;;;19.37;89.01;100521.75;4994433;28;20074;-66
2023/05/23 04:51:07;;;;;;;9.52;4.38;;;;;;;19.28;89.81;100520.72;4986346;28;20049;-66
2023/05/23 04:53:38;;;;;;;7.63;3.75;;;;;;;19.34;89.39;100527.25;5001719;28;20068;-67
2023/05/23 04:56:03;;;;;;;9.68;4.10;;;;;;;19.25;89.73;100514.13;4983264;28;20034;-66
2023/05/23 04:58:30;;;;;;;9.18;3.72;;;;;;;19.26;89.81;100523.84;4985882;28;20058;-66
2023/05/23 05:01:00;;;;;;;10.53;3.73;;;;;;;19.20;90.13;100530.22;4983857;28;20084;-67
2023/05/23 05:03:25;;;;;;;8.35;4.93;;;;;;;19.19;90.44;100528.66;4996076;28;20057;-68
2023/05/23 05:05:52;;;;;;;8.30;4.07;;;;;;;19.10;90.34;100528.41;4986032;28;20026;-67
2023/05/23 05:08:18;;;;;;;8.10;3.92;;;;;;;19.12;90.05;100532.28;4991103;28;20022;-66
2023/05/23 05:10:44;;;;;;;8.35;4.15;;;;;;;19.02;90.53;100529.72;4976679;28;20022;-67
2023/05/23 05:13:10;;;;;;;10.82;3.83;;;;;;;19.05;91.06;100543.31;4981138;28;20034;-66
2023/05/23 05:15:43;;;;;;;9.25;3.35;;;;;;;19.12;89.67;100537.75;4986491;28;20057;-66
2023/05/23 05:18:09;;;;;;;11.77;4.82;;;;;;;19.08;90.04;100534.31;4983697;28;20376;-66
2023/05/23 05:20:34;;;;;;;9.95;4.57;;;;;;;19.08;89.99;100534.31;4991470;28;20037;-66
2023/05/23 05:23:00;;;;;;;7.68;4.63;;;;;;;19.01;90.82;100528.19;4988189;28;20614;-67
2023/05/23 05:25:30;;;;;;;10.32;4.55;;;;;;;19.01;90.60;100533.66;4984373;28;20030;-67
2023/05/23 05:27:57;;;;;;;10.93;5.20;;;;;;;19.06;90.00;100539.41;5005199;28;20030;-66
2023/05/23 05:30:24;;;;;;;11.95;6.05;;;;;;;19.00;89.89;100532.88;4993639;28;20505;-66
2023/05/23 05:32:56;;;;;;;12.38;4.68;;;;;;;19.00;90.05;100534.81;4975068;28;20034;-67
2023/05/23 05:35:22;;;;;;;10.07;4.00;;;;;;;18.89;90.43;100533.03;4976874;28;20068;-67
2023/05/23 05:37:48;;;;;;;13.65;5.00;;;;;;;18.92;90.40;100542.34;4986437;28;20072;-66
2023/05/23 05:40:13;;;;;;;10.70;4.28;;;;;;;18.88;90.47;100534.22;4989682;28;20391;-66
2023/05/23 05:42:41;;;;;;;16.35;5.15;;;;;;;18.93;90.44;100544.66;4990255;28;20113;-67
2023/05/23 05:45:10;;;;;;;10.00;3.80;;;;;;;18.79;91.58;100541.41;4984816;28;20113;-66
2023/05/23 05:47:37;;;;;;;8.93;4.40;;;;;;;18.86;91.75;100539.31;4983435;28;20030;-66
2023/05/23 05:50:09;;;;;;;10.80;3.63;;;;;;;18.88;91.20;100544.38;4985268;28;20030;-67
2023/05/23 05:52:38;;;;;;;6.88;3.50;;;;;;;18.82;92.04;100544.06;4989453;28;20034;-66
2023/05/23 05:55:07;;;;;;;7.28;3.35;;;;;;;18.86;91.79;100549.47;4988487;28;20458;-66
2023/05/23 05:57:33;;;;;;;6.18;3.03;;;;;;;18.87;92.11;100542.84;4983772;28;20069;-66
2023/05/23 06:00:06;;;;;;;10.50;2.90;;;;;;;18.92;92.14;100542.34;5002823;28;20045;-67
2023/05/23 06:02:33;;;;;;;;;;;;;;;18.86;92.53;100552.19;5003626;28;20052;-67
2023/05/23 06:04:58;;;;;;;8.43;3.08;;;;;;;18.93;92.59;100549.34;4991281;28;19917;-67
2023/05/23 06:07:23;;;;;;;9.80;3.47;;;;;;;18.95;92.18;100555.16;5006003;28;20030;-67
2023/05/23 06:09:49;;;;;;;5.93;3.30;;;;;;;18.99;92.57;100561.34;4977620;28;20034;-67
2023/05/23 06:12:15;;;;;;;7.22;3.00;;;;;;;19.05;92.07;100561.66;4977828;28;20037;-67
2023/05/23 06:14:41;;;;;;;8.20;3.35;;;;;;;19.10;91.83;100556.50;4991177;28;20075;-66
2023/05/23 06:17:07;;;;;;;6.35;3.63;;;;;;;19.12;91.57;100559.59;4990632;28;20033;-67
2023/05/23 06:19:33;;;;;;;7.15;3.42;;;;;;;19.04;92.37;100563.63;5011971;28;20061;-66
2023/05/23 06:21:59;;;;;;;4.63;3.05;;;;;;;19.09;92.46;100557.69;5007675;28;20064;-67
2023/05/23 06:24:25;;;;;;;8.80;4.00;;;;;;;19.26;91.31;100558.59;5011765;28;20073;-67
2023/05/23 06:26:50;;;;;;;7.32;3.20;;;;;;;19.05;92.83;100562.41;5008227;28;20041;-66
2023/05/23 06:29:15;;;;;;;7.55;3.10;;;;;;;18.97;93.57;100563.72;4993084;28;20029;-67
2023/05/23 06:31:43;;;;;;;5.75;3.03;;;;;;;19.11;93.44;100560.75;5012336;28;20045;-66
2023/05/23 06:34:08;;;;;;;7.57;3.25;;;;;;;19.15;93.02;100563.44;4992414;28;20038;-66
2023/05/23 06:36:34;;;;;;;5.30;2.85;;;;;;;19.16;92.73;100563.03;4981512;28;20046;-67
2023/05/23 06:38:59;;;;;;;7.97;3.22;;;;;;;19.21;92.27;100567.25;5012127;28;20045;-67
2023/05/23 06:41:26;;;;;;;9.15;3.65;;;;;;;19.14;92.71;100561.91;5013920;28;20025;-68
2023/05/23 06:43:52;;;;;;;7.35;3.28;;;;;;;19.14;92.62;100559.94;4986325;28;20410;-68
2023/05/23 06:46:22;;;;;;;7.95;3.63;;;;;;;19.09;93.01;100571.31;4987713;28;20037;-67
2023/05/23 06:48:50;;;;;;;6.38;3.85;;;;;;;19.10;93.26;100572.88;5009037;28;20498;-68
2023/05/23 06:51:17;;;;;;;7.32;4.15;;;;;;;19.26;92.12;100564.81;5009865;28;20041;-67
2023/05/23 06:53:43;;;;;;;5.97;3.05;;;;;;;19.07;93.14;100567.47;4986346;28;20033;-67
2023/05/23 06:56:09;;;;;;;8.52;3.35;;;;;;;19.00;94.06;100573.03;4996077;28;20021;-68
2023/05/23 06:58:46;;;;;;;13.35;4.03;;;;;;;19.04;94.01;100577.28;4981005;28;20102;-68
2023/05/23 07:01:12;;;;;;;5.18;3.10;;;;;;;19.06;94.01;100577.63;4993763;28;20041;-67
2023/05/23 07:03:43;;;;;;;6.32;2.78;;;;;;;19.12;93.77;100577.94;4998265;28;20034;-67
2023/05/23 07:06:09;;;;;;;8.82;3.13;;;;;;;19.05;94.39;100580.78;4980978;28;20034;-67
2023/05/23 07:08:34;;;;;;;7.80;3.75;;;;;;;19.01;94.71;100586.28;4993829;28;20498;-67
2023/05/23 07:11:00;;;;;;;7.70;3.72;;;;;;;18.99;95.38;100583.19;5012696;28;20048;-68
2023/05/23 07:13:48;;;;;;;6.50;2.53;;;;;;;18.92;95.62;100589.53;5008359;28;20050;-66
2023/05/23 07:16:21;;;;;;;7.00;2.33;;;;;;;18.96;95.46;100589.47;4988186;28;20033;-68
2023/05/23 07:19:04;;;;;;;7.15;3.40;;;;;;;19.07;95.20;100594.75;4987652;28;20033;-68
2023/05/23 07:21:33;;;;;;;7.25;3.17;;;;;;;19.20;93.66;100585.56;4994098;28;20510;-68
2023/05/23 07:24:00;;;;;;;6.70;3.08;;;;;;;19.11;93.73;100588.06;4988107;28;20475;-68
2023/05/23 07:26:26;;;;;;;7.78;2.83;;;;;;;19.06;94.21;100590.50;5005266;28;20133;-67
2023/05/23 07:28:54;;;;;;;5.35;2.80;;;;;;;19.05;94.62;100587.00;4992598;28;20041;-69
2023/05/23 07:31:20;;;;;;;4.53;2.35;;;;;;;19.01;94.34;100586.28;4993476;28;20052;-68
2023/05/23 07:33:46;;;;;;;5.72;3.15;;;;;;;18.98;94.86;100608.16;4983343;28;20042;-67
2023/05/23 07:36:18;;;;;;;5.07;2.65;;;;;;;19.01;94.77;100590.97;4984906;28;20034;-68
2023/05/23 07:38:44;;;;;;;7.47;3.72;;;;;;;19.00;94.62;100598.38;4986956;28;20034;-68
2023/05/23 07:41:09;;;;;;;4.35;2.22;;;;;;;19.01;94.88;100599.91;5006288;28;20052;-68
2023/05/23 07:43:34;;;;;;;7.10;2.38;;;;;;;19.02;95.08;100608.88;4978950;28;20037;-67
2023/05/23 07:46:00;;;;;;;5.72;3.00;;;;;;;19.01;95.50;100610.09;4974510;28;20030;-68
2023/05/23 07:48:26;;;;;;;3.47;2.40;;;;;;;18.98;95.33;100611.69;5000615;28;20030;-68
2023/05/23 07:50:54;;;;;;;5.60;2.50;;;;;;;19.02;95.36;100617.09;4979732;28;20053;-67
2023/05/23 07:53:21;;;;;;;6.32;2.95;;;;;;;19.02;95.33;100622.53;4985757;28;20026;-68
2023/05/23 07:55:47;;;;;;;3.75;1.95;;;;;;;19.17;94.66;100621.91;4990959;28;20068;-67
2023/05/23 07:58:13;;;;;;;3.03;2.08;;;;;;;19.20;93.88;100623.06;4989000;28;20042;-69
2023/05/23 08:00:40;;;;;;;3.67;2.17;;;;;;;19.22;92.79;100634.34;4986014;28;20030;-67
2023/05/23 08:03:15;;;;;;;2.95;1.80;;;;;;;19.16;92.50;100636.78;4991231;28;20034;-67
2023/05/23 08:05:52;;;;;;;4.78;1.75;;;;;;;19.17;92.39;100632.06;4976267;28;20458;-68
2023/05/23 08:08:18;;;;;;;2.75;1.50;;;;;;;19.18;92.38;100628.91;4995914;28;20064;-68
2023/05/23 08:10:44;;;;;;;2.58;1.52;;;;;;;19.17;92.33;100632.06;4989483;28;20025;-68
2023/05/23 08:13:18;;;;;;;1.67;0.95;;;;;;;19.12;92.16;100641.50;4998038;28;20403;-67
2023/05/23 08:16:03;;;;;;;3.03;1.73;;;;;;;19.15;91.99;100639.88;5004996;28;20052;-69
2023/05/23 08:18:29;;;;;;;2.75;1.65;;;;;;;19.20;91.77;100656.59;4982624;28;20074;-68
2023/05/23 08:20:56;;;;;;;2.38;1.15;;;;;;;19.23;91.08;100653.03;4995067;28;20049;-68
2023/05/23 08:23:21;;;;;;;2.97;1.80;;;;;;;19.18;90.49;100658.94;5003409;28;20072;-67
2023/05/23 08:25:47;;;;;;;2.38;1.50;;;;;;;19.18;90.20;100658.94;4973753;28;20030;-68
2023/05/23 08:28:13;;;;;;;1.70;1.38;;;;;;;19.25;89.93;100667.06;4985303;28;20058;-67
2023/05/23 08:30:56;;;;;;;2.47;1.38;;;;;;;19.36;89.37;100667.69;4978053;28;20538;-68
2023/05/23 08:33:23;;;;;;;2.15;1.27;;;;;;;19.38;89.35;100680.94;4990366;28;20067;-67
2023/05/23 08:35:52;;;;;;;2.42;1.08;;;;;;;19.28;87.65;100679.88;4993564;28;20041;-68
2023/05/23 08:38:20;;;;;;;1.35;1.08;;;;;;;19.27;87.87;100675.59;4986638;28;20835;-68
2023/05/23 08:41:00;;;;;;;1.70;1.13;;;;;;;19.19;87.23;100678.84;4979896;28;20128;-67
2023/05/23 08:43:27;;;;;;;2.22;1.20;;;;;;;19.27;87.47;100674.84;4990750;28;20034;-68
2023/05/23 08:45:53;;;;;;;1.30;1.00;;;;;;;19.36;87.34;100686.03;4994140;28;20414;-68
2023/05/23 08:48:20;;;;;;;1.92;1.27;;;;;;;19.35;86.39;100690.75;4962326;28;20506;-68
2023/05/23 08:50:51;;;;;;;4.22;1.70;;;;;;;19.35;87.12;100692.69;4988814;28;20060;-68
2023/05/23 08:53:20;;;;;;;;;;;;;;;19.47;86.15;100700.31;5002454;28;20184;-67
2023/05/23 08:55:50;;;;;;;1.33;0.80;;;;;;;19.38;86.29;100700.84;4997361;28;19913;-68
2023/05/23 08:58:21;;;;;;;2.15;1.20;;;;;;;19.40;86.16;100706.66;4999913;28;20075;-69
2023/05/23 09:00:54;;;;;;;1.63;0.98;;;;;;;19.35;85.97;100707.13;5001720;28;20029;-68
2023/05/23 09:03:22;;;;;;;1.17;1.08;;;;;;;19.35;86.09;100704.41;4995911;28;20262;-68
2023/05/23 09:05:59;;;;;;;0.95;0.70;;;;;;;19.27;86.54;100710.34;4989155;28;20026;-68
2023/05/23 09:08:26;;;;;;;1.60;1.30;;;;;;;19.27;85.87;100719.31;4999619;28;20055;-68
2023/05/23 09:10:56;;;;;;;0.95;0.60;;;;;;;19.19;85.44;100717.84;4985031;28;20022;-67
2023/05/23 09:13:21;;;;;;;1.77;1.10;;;;;;;19.21;85.69;100720.94;5005334;28;20099;-67
2023/05/23 09:16:01;;;;;;;1.13;0.70;;;;;;;19.21;86.03;100729.16;5002597;28;20030;-68
2023/05/23 09:18:40;;;;;;;1.75;0.77;;;;;;;19.28;86.10;100726.31;4993885;28;20076;-68
2023/05/23 09:21:08;;;;;;;1.60;1.13;;;;;;;19.27;85.08;100749.34;5007691;28;20042;-68
2023/05/23 09:23:38;;;;;;;1.20;1.10;;;;;;;19.23;85.08;100734.97;4998794;28;20451;-68
2023/05/23 09:26:09;;;;;;;0.77;0.65;;;;;;;19.30;84.45;100745.78;4989191;28;20446;-67
2023/05/23 09:28:37;;;;;;;0.80;0.60;;;;;;;19.26;84.32;100747.78;4980253;28;20487;-68
2023/05/23 09:31:05;;;;;;;1.92;1.05;;;;;;;19.21;84.40;100758.41;4990907;28;20033;-67
2023/05/23 09:33:51;;;;;;;1.92;0.75;;;;;;;19.15;84.77;100760.81;4993481;28;20034;-69
2023/05/23 09:36:19;;;;;;;1.35;1.08;;;;;;;18.97;84.53;100754.81;4990293;28;20097;-68
2023/05/23 09:38:47;;;;;;;0.75;0.60;;;;;;;18.82;85.22;100756.94;4989188;28;20033;-68
2023/05/23 09:41:13;;;;;;;2.47;1.30;;;;;;;18.82;85.60;100758.88;5005608;28;20026;-68
2023/05/23 09:43:53;;;;;;;4.50;2.05;;;;;;;18.74;86.72;100766.38;4989526;28;20068;-67
2023/05/23 09:46:20;;;;;;;3.72;2.22;;;;;;;18.85;86.97;100764.31;5001922;28;20112;-67
2023/05/23 09:48:51;;;;;;;16.17;6.72;;;;;;;18.80;86.99;100769.44;4987701;28;20095;-69
2023/05/23 09:51:20;;;;;;;;;;;;;;;18.80;87.43;100774.91;4998786;28;20092;-68
2023/05/23 09:53:46;;;;;;;7.10;3.47;;;;;;;18.72;87.77;100776.16;5010699;28;19924;-69
2023/05/23 09:56:14;;;;;;;2.88;1.13;;;;;;;18.74;87.41;100780.03;5004464;28;20033;-65
2023/05/23 09:58:42;;;;;;;0.77;0.73;;;;;;;18.77;87.29;100781.19;5006198;28;20583;-68
2023/05/23 10:01:09;;;;;;;2.47;1.08;;;;;;;18.65;87.63;100787.94;5008738;28;20478;-68
2023/05/23 10:03:56;;;;;;;2.20;1.13;;;;;;;18.51;88.21;100798.19;5009669;28;20037;-69
2023/05/23 10:06:43;;;;;;;2.25;1.35;;;;;;;18.48;88.07;100786.16;4994416;28;20502;-66
2023/05/23 10:09:14;;;;;;;1.83;1.10;;;;;;;18.51;87.92;100798.97;4984440;28;20080;-68
2023/05/23 10:12:21;;;;;;;1.25;0.98;;;;;;;18.35;88.25;100806.13;5002058;28;20026;-68
2023/05/23 10:14:53;;;;;;;1.48;0.93;;;;;;;18.42;87.94;100806.06;4962422;28;20053;-68
2023/05/23 10:17:31;;;;;;;1.17;0.73;;;;;;;18.42;87.58;100811.50;5003999;28;20129;-68
2023/05/23 10:20:02;;;;;;;1.88;0.90;;;;;;;18.31;87.38;100813.56;5035479;22;20128;-53
2023/05/23 10:22:27;;;;;;;1.40;0.70;;;;;;;18.28;87.63;100819.81;5016241;28;20045;-56
2023/05/23 10:24:53;;;;;;;1.40;0.63;;;;;;;18.37;86.81;100814.69;5016492;28;20033;-52
2023/05/23 10:27:18;;;;;;;0.82;0.60;;;;;;;18.39;86.83;100828.69;5017321;28;20042;-55
2023/05/23 10:29:44;;;;;;;0.43;0.30;;;;;;;18.38;86.75;100827.13;5010223;28;20037;-51
2023/05/23 10:32:11;;;;;;;0.68;0.40;;;;;;;18.36;86.22;100835.72;4991731;28;20033;-54
2023/05/23 10:34:53;;;;;;;0.30;0.30;;;;;;;18.29;86.20;100830.31;5008309;28;20384;-54
2023/05/23 10:37:35;;;;;;;0.68;0.45;;;;;;;18.29;86.04;100848.66;4990203;28;20480;-57
2023/05/23 10:40:12;;;;;;;0.60;0.50;;;;;;;18.36;85.96;100846.63;5006520;28;20609;-53
2023/05/23 10:42:56;;;;;;;0.70;0.40;;;;;;;18.42;85.20;100852.44;5002542;28;20593;-55
2023/05/23 10:45:23;;;;;;;1.08;0.60;;;;;;;18.12;85.89;100850.31;5008738;28;20088;-55
2023/05/23 10:47:51;;;;;;;2.08;0.93;;;;;;;18.11;86.03;100853.44;5007257;28;20069;-55
2023/05/23 10:50:32;;;;;;;0.43;0.43;;;;;;;18.01;86.15;100861.31;5003192;28;20427;-53
2023/05/23 10:53:03;;;;;;;1.23;0.70;;;;;;;18.07;86.12;100866.31;4998313;28;20032;-56
2023/05/23 10:55:34;;;;;;;5.60;0.47;;;;;;;17.98;85.95;100870.28;4985529;28;20338;-56
2023/05/23 10:58:19;;;;;;;0.75;0.70;;;;;;;18.02;84.92;100865.56;5002397;28;20130;-56
2023/05/23 11:00:52;;;;;;;1.00;0.65;;;;;;;17.85;85.07;100871.91;4976805;28;20042;-52
2023/05/23 11:03:18;;;;;;;0.60;0.60;;;;;;;17.96;84.72;100874.59;4996655;28;20034;-53
2023/05/23 11:05:51;;;;;;;0.57;0.43;;;;;;;17.94;84.10;100874.22;5007733;28;20080;-52
2023/05/23 11:08:19;;;;;;;3.92;0.60;;;;;;;18.02;84.11;100881.19;5002110;28;20487;-59
2023/05/23 11:10:50;;;;;;;2.05;0.40;;;;;;;17.95;83.94;100890.16;4989925;28;20080;-54
2023/05/23 11:13:16;;;;;;;;;;;;;;;17.94;83.87;100880.41;5007655;28;20518;-56
2023/05/23 11:15:43;;;;;;;0.30;0.30;;;;;;;18.05;83.16;100885.81;4992561;28;19913;-58
2023/05/23 11:18:10;;;;;;;0.73;0.57;;;;;;;18.05;82.53;100902.16;4997478;28;20076;-56
2023/05/23 11:20:37;;;;;;;0.38;0.30;;;;;;;17.89;82.77;100899.94;5008380;28;20041;-57
2023/05/23 11:23:06;;;;;;;0.65;0.40;;;;;;;17.79;83.53;100894.53;5002827;28;20069;-58
2023/05/23 11:25:43;;;;;;;0.80;0.47;;;;;;;17.92;82.82;100904.56;5005397;28;20045;-58
2023/05/23 11:28:10;;;;;;;0.50;0.50;;;;;;;18.01;81.76;100901.41;5001918;28;20033;-57
2023/05/23 11:30:36;;;;;;;0.28;0.28;;;;;;;17.99;82.17;100904.53;5011794;28;20038;-57
2023/05/23 11:33:13;;;;;;;0.43;0.40;;;;;;;18.09;81.30;100899.41;5007018;28;20696;-56